KBHB

Hancock County-Bar Harbor Airport

Bar Harbor, Maine, USA
METAR KBHB 201356Z AUTO 12005KT 10SM CLR 23/13 A3019 RMK AO2 SLP228 T02280128 $
Observed Flight Rules
Jul-20 @ 13:56 UTC (35 minutes ago) Visual Flight Rules
Wind Visibility Clouds
120° at 5 knots 10 miles
  • Clear skies
Temperatures Readings
Current 23°C / 73°F
Dewpoint 13°C / 55°F
Humidity 53%
Altimeter 30.19" Hg
Pressure 1022.8 hPa
Elevation 26
METAR KBHB 201356Z AUTO 12005KT 10SM CLR 23/13 A3019 RMK AO2 SLP228 T02280128 $
Observed Flight Rules
Jul-20 @ 13:56 UTC
(35 minutes ago)
VFR
Wind Visibility
120° at 5 knots 10 miles
Clouds
  • Clear skies
Temperature Dewpoint
23°C / 73°F 13°C / 55°F
Humidity Altimeter Pressure
53% 30.19" Hg 1022.8 hPa